createdAt,value
2023-03-18T00:03:19.766Z,97861.63
2023-03-18T00:08:22.021Z,97852.44
2023-03-18T00:13:24.232Z,97848.06
2023-03-18T00:18:27.159Z,97849.69
2023-03-18T00:23:29.085Z,97854.34
2023-03-18T00:28:34.562Z,97851.44
2023-03-18T00:33:45.490Z,97852.56
2023-03-18T00:38:51.267Z,97849.16
2023-03-18T00:43:54.336Z,97842.22
2023-03-18T00:49:00.474Z,97843.84
2023-03-18T00:54:07.274Z,97839.63
2023-03-18T00:59:09.383Z,97840.59
2023-03-18T01:04:11.648Z,97837.22
2023-03-18T01:09:14.368Z,97829.59
2023-03-18T01:14:16.310Z,97827.84
2023-03-18T01:19:18.286Z,97825.09
2023-03-18T01:24:20.452Z,97830.72
2023-03-18T01:29:23.894Z,97825.72
2023-03-18T01:34:26.146Z,97816.81
2023-03-18T01:39:28.177Z,97813.44
2023-03-18T01:44:31.096Z,97812.63
2023-03-18T01:49:41.185Z,97812.13
2023-03-18T01:54:55.627Z,97803.72
2023-03-18T01:59:59.125Z,97811.63
2023-03-18T02:05:06.458Z,97814.22
2023-03-18T02:10:13.445Z,97812.75
2023-03-18T02:15:18.573Z,97821.44
2023-03-18T02:20:30.210Z,97820.78
2023-03-18T02:25:52.086Z,97830.47
2023-03-18T02:31:04.264Z,97836.75
2023-03-18T02:36:11.926Z,97844.34
2023-03-18T02:41:23.602Z,97838.38
2023-03-18T02:46:49.745Z,97844.50
2023-03-18T02:51:52.278Z,97856.91
2023-03-18T02:56:55.488Z,97860.44
2023-03-18T03:01:57.842Z,97865.63
2023-03-18T03:07:01.644Z,97869.16
2023-03-18T03:12:20.944Z,97877.88
2023-03-18T03:17:27.114Z,97873.81
2023-03-18T03:22:30.404Z,97880.75
2023-03-18T03:27:33.034Z,97881.06
2023-03-18T03:32:36.300Z,97876.34
2023-03-18T03:37:38.265Z,97884.09
2023-03-18T03:42:40.390Z,97879.09
2023-03-18T03:47:46.731Z,97893.91
2023-03-18T03:52:49.481Z,97899.88
2023-03-18T03:57:52.323Z,97903.56
2023-03-18T04:02:54.926Z,97905.50
2023-03-18T04:08:00.206Z,97911.78
2023-03-18T04:13:11.661Z,97914.13
2023-03-18T04:18:17.032Z,97924.09
2023-03-18T04:23:19.905Z,97921.97
2023-03-18T04:28:22.006Z,97922.41
2023-03-18T04:33:25.091Z,97921.75
2023-03-18T04:38:30.684Z,97931.13
2023-03-18T04:43:32.898Z,97935.63
2023-03-18T04:48:35.520Z,97944.91
2023-03-18T04:53:42.336Z,97941.97
2023-03-18T04:58:46.623Z,97948.50
2023-03-18T05:03:57.279Z,97937.16
2023-03-18T05:09:06.111Z,97941.66
2023-03-18T05:14:09.760Z,97937.16
2023-03-18T05:19:19.139Z,97941.38
2023-03-18T05:24:29.601Z,97943.78
2023-03-18T05:29:32.425Z,97946.06
2023-03-18T05:34:47.163Z,97955.28
2023-03-18T05:39:50.060Z,97950.94
2023-03-18T05:44:55.365Z,97964.78
2023-03-18T05:50:00.102Z,97958.03
2023-03-18T05:55:03.389Z,97958.16
2023-03-18T06:00:10.334Z,97968.34
2023-03-18T06:05:19.169Z,97971.22
2023-03-18T06:10:23.470Z,97970.84
2023-03-18T06:15:26.753Z,97970.97
2023-03-18T06:20:29.089Z,97972.16
2023-03-18T06:25:32.215Z,97975.94
2023-03-18T06:30:34.651Z,97987.28
2023-03-18T06:35:36.630Z,97983.97
2023-03-18T06:40:39.113Z,97971.16
2023-03-18T06:45:42.511Z,97980.56
2023-03-18T06:50:45.589Z,97979.19
2023-03-18T06:55:57.661Z,97982.41
2023-03-18T07:01:04.342Z,97986.03
2023-03-18T07:06:15.519Z,97980.63
2023-03-18T07:11:19.646Z,97988.28
2023-03-18T07:16:21.820Z,97995.78
2023-03-18T07:21:25.103Z,97997.53
2023-03-18T07:26:27.970Z,97992.66
2023-03-18T07:31:30.997Z,97992.97
2023-03-18T07:36:33.407Z,98003.41
2023-03-18T07:41:37.739Z,97991.50
2023-03-18T07:46:39.756Z,97989.94
2023-03-18T07:51:41.985Z,97980.75
2023-03-18T07:56:44.691Z,97994.19
2023-03-18T08:01:46.879Z,97983.69
2023-03-18T08:06:49.500Z,98002.28
2023-03-18T08:11:51.356Z,97988.38
2023-03-18T08:16:53.299Z,97994.84
2023-03-18T08:21:58.106Z,98000.50
2023-03-18T08:26:59.982Z,97994.63
2023-03-18T08:32:02.263Z,97998.97
2023-03-18T08:37:05.120Z,98004.47
2023-03-18T08:42:07.545Z,97988.56
2023-03-18T08:47:09.490Z,98006.34
2023-03-18T08:52:11.957Z,98008.31
2023-03-18T08:57:14.033Z,98014.41
2023-03-18T09:02:18.806Z,98027.28
2023-03-18T09:07:20.695Z,98011.91
2023-03-18T09:12:22.754Z,98009.50
2023-03-18T09:17:35.883Z,98011.31
2023-03-18T09:22:47.492Z,98003.94
2023-03-18T09:27:49.755Z,98006.72
2023-03-18T09:32:51.791Z,98009.34
2023-03-18T09:37:54.192Z,98011.13
2023-03-18T09:42:56.744Z,98014.72
2023-03-18T09:48:20.471Z,98003.50
2023-03-18T09:53:22.677Z,98008.06
2023-03-18T09:58:33.653Z,98005.00
2023-03-18T10:03:44.029Z,97998.88
2023-03-18T10:09:01.768Z,97999.91
2023-03-18T10:14:36.400Z,97996.47
2023-03-18T10:20:04.697Z,97991.16
2023-03-18T10:25:24.686Z,97997.44
2023-03-18T10:30:30.129Z,97995.56
2023-03-18T10:35:35.669Z,97992.78
2023-03-18T10:40:41.547Z,98006.44
2023-03-18T10:45:45.509Z,98012.44
2023-03-18T10:51:17.039Z,98010.28
2023-03-18T10:56:19.459Z,98014.06
2023-03-18T11:01:25.419Z,98015.53
2023-03-18T11:06:57.892Z,98016.41
2023-03-18T11:12:06.059Z,98021.81
2023-03-18T11:17:33.738Z,98020.28
2023-03-18T11:22:38.131Z,98020.28
2023-03-18T11:27:43.462Z,98023.06
2023-03-18T11:33:11.998Z,98019.47
2023-03-18T11:38:24.515Z,98023.16
2023-03-18T11:43:28.379Z,98022.88
2023-03-18T11:48:37.177Z,98020.94
2023-03-18T11:53:39.242Z,98028.56
2023-03-18T11:58:47.747Z,98027.03
2023-03-18T12:03:52.913Z,98023.25
2023-03-18T12:09:07.320Z,98017.09
2023-03-18T12:14:12.167Z,98021.94
2023-03-18T12:19:20.581Z,98017.53
2023-03-18T12:24:52.691Z,98013.50
2023-03-18T12:30:29.275Z,98020.25
2023-03-18T12:35:49.442Z,98021.06
2023-03-18T12:41:14.633Z,98021.06
2023-03-18T12:46:41.610Z,98011.81
2023-03-18T12:52:06.740Z,98016.72
2023-03-18T12:57:21.287Z,98016.78
2023-03-18T13:02:34.448Z,98014.00
2023-03-18T13:08:15.350Z,98010.38
2023-03-18T13:13:20.218Z,98015.16
2023-03-18T13:18:31.972Z,98020.56
2023-03-18T13:24:02.317Z,98012.13
2023-03-18T13:30:02.632Z,98004.69
2023-03-18T13:35:23.188Z,98005.06
2023-03-18T13:41:22.404Z,98009.91
2023-03-18T13:46:29.069Z,97994.88
2023-03-18T13:51:31.254Z,97989.28
2023-03-18T13:56:44.937Z,97989.91
2023-03-18T14:01:50.854Z,97987.53
2023-03-18T14:06:56.973Z,97988.34
2023-03-18T14:12:40.753Z,97980.16
2023-03-18T14:18:02.996Z,97974.31
2023-03-18T14:23:29.363Z,97971.91
2023-03-18T14:28:44.350Z,97971.50
2023-03-18T14:33:57.789Z,97977.34
2023-03-18T14:39:04.299Z,97971.13
2023-03-18T14:44:22.193Z,97969.75
2023-03-18T14:49:36.496Z,97965.16
2023-03-18T14:54:43.818Z,97963.19
2023-03-18T14:59:45.931Z,97962.97
2023-03-18T15:04:56.619Z,97964.41
2023-03-18T15:10:13.683Z,97964.41
2023-03-18T15:15:20.063Z,97972.22
2023-03-18T15:20:24.347Z,97971.22
2023-03-18T15:25:26.573Z,97969.25
2023-03-18T15:30:32.527Z,97966.00
2023-03-18T15:35:35.659Z,97969.00
2023-03-18T15:40:53.006Z,97974.19
2023-03-18T15:45:59.041Z,97977.97
2023-03-18T15:51:05.192Z,97985.16
2023-03-18T15:56:32.177Z,97984.94
2023-03-18T16:01:35.642Z,97994.13
2023-03-18T16:06:38.728Z,98002.69
2023-03-18T16:11:41.546Z,98007.41
2023-03-18T16:16:43.640Z,98001.53
2023-03-18T16:21:45.791Z,98005.69
2023-03-18T16:26:47.884Z,98003.00
2023-03-18T16:31:49.837Z,98001.34
2023-03-18T16:36:53.704Z,98006.63
2023-03-18T16:41:56.547Z,98011.31
2023-03-18T16:46:58.649Z,98026.00
2023-03-18T16:52:02.256Z,98030.06
2023-03-18T16:57:05.375Z,98033.31
2023-03-18T17:02:32.000Z,98039.94
2023-03-18T17:07:37.076Z,98044.97
2023-03-18T17:12:40.543Z,98042.00
2023-03-18T17:17:43.251Z,98052.66
2023-03-18T17:22:45.363Z,98049.97
2023-03-18T17:27:55.821Z,98048.41
2023-03-18T17:32:57.784Z,98046.25
2023-03-18T17:38:00.342Z,98050.53
2023-03-18T17:43:03.083Z,98061.13
2023-03-18T17:48:20.204Z,98061.81
2023-03-18T17:53:22.019Z,98059.97
2023-03-18T17:58:26.663Z,98066.56
2023-03-18T18:03:29.928Z,98076.03
2023-03-18T18:08:31.927Z,98071.50
2023-03-18T18:13:33.845Z,98075.44
2023-03-18T18:18:36.631Z,98069.47
2023-03-18T18:23:39.343Z,98067.09
2023-03-18T18:28:48.304Z,98069.38
2023-03-18T18:33:50.565Z,98068.78
2023-03-18T18:38:52.857Z,98072.03
2023-03-18T18:43:55.723Z,98079.53
2023-03-18T18:48:57.948Z,98081.16
2023-03-18T18:54:00.247Z,98073.25
2023-03-18T18:59:07.336Z,98061.28
2023-03-18T19:04:15.781Z,98065.50
2023-03-18T19:09:23.983Z,98076.38
2023-03-18T19:14:28.538Z,98067.34
2023-03-18T19:19:35.003Z,98062.66
2023-03-18T19:24:37.380Z,98064.28
2023-03-18T19:29:39.185Z,98057.81
2023-03-18T19:34:41.847Z,98071.75
2023-03-18T19:39:47.627Z,98074.50
2023-03-18T19:44:50.065Z,98081.63
2023-03-18T19:49:52.175Z,98083.41
2023-03-18T19:54:55.310Z,98079.50
2023-03-18T19:59:59.580Z,98080.81
2023-03-18T20:05:15.770Z,98078.38
2023-03-18T20:10:19.756Z,98086.50
2023-03-18T20:15:25.222Z,98086.34
2023-03-18T20:20:30.806Z,98075.81
2023-03-18T20:54:12.487Z,98089.41
2023-03-18T20:59:14.751Z,98079.69
2023-03-18T21:04:17.094Z,98082.59
2023-03-18T21:09:19.019Z,98071.75
2023-03-18T21:14:21.579Z,98073.53
2023-03-18T21:19:23.617Z,98086.31
2023-03-18T21:24:27.907Z,98090.38
2023-03-18T21:29:29.834Z,98092.00
2023-03-18T21:40:04.186Z,98089.41
2023-03-18T21:45:11.735Z,98087.78
2023-03-18T21:50:26.309Z,98085.34
2023-03-18T21:55:28.197Z,98082.13
2023-03-18T22:00:30.543Z,98081.47
2023-03-18T22:12:03.874Z,98072.72
2023-03-18T22:17:22.921Z,98090.22
2023-03-18T22:22:28.546Z,98089.56
2023-03-18T22:27:32.223Z,98086.16
2023-03-18T22:38:05.172Z,98088.75
2023-03-18T22:55:55.000Z,98076.94
2023-03-18T23:00:57.284Z,98091.00
2023-03-18T23:06:00.576Z,98086.31
2023-03-18T23:11:02.746Z,98077.41
2023-03-18T23:16:07.490Z,98074.47
2023-03-18T23:21:16.163Z,98075.75
2023-03-18T23:26:18.745Z,98078.00
2023-03-18T23:31:20.930Z,98070.56
2023-03-18T23:36:22.865Z,98074.28
2023-03-18T23:41:24.835Z,98073.78
2023-03-18T23:46:27.010Z,98076.69
2023-03-18T23:57:08.161Z,98084.28
